• Join FlightAware (Why Join?)
  • Login
  • US Flag 
02:55AM EST


 

Airport Tracker/Info


-or-


 

Live Flight TrackerFlight Track Log ✈ SWA1086 ✈ 17-Apr-2013 ✈ KOKC - KMCI

Flight Track Log - Related Links

Times and Time Zones

All times are in EDT time to prevent confusion due to time zone crossing. See the SWA1086 flight status page for this flight to view local times or setup timezone preferences in your user account.

Time Position Orientation Groundspeed Altitude Reporting Facility
EDT Latitude Longitude Course Direction KTS MPH feet Rate Location/Type
11:23AM 35.3747 -97.5944 15° North 143 165 2,000  Level Fort Worth Center
11:24AM 35.3519 -97.6247 227° Southwest 204 235 3,000 2,752 Climbing Fort Worth Center
11:25AM 35.4017 -97.6961 311° West 304 350 7,000 3,570 Climbing Fort Worth Center
11:26AM 35.4767 -97.7169 347° North 323 372 10,200 2,354 Climbing Fort Worth Center
11:28AM 35.6772 -97.6636 12° North 397 457 14,100 2,250 Climbing Kansas City Center
11:29AM 36.0079 -97.3862 15° North  Level FlightAware Approximate
11:29AM 35.8142 -97.5997 21° North 431 496 17,100  Level Kansas City Center
11:30AM 35.9336 -97.5436 21° North 450 518 19,700 2,361 Climbing Kansas City Center
11:31AM 36.0581 -97.4875 20° North 465 535 21,900 1,597 Climbing Kansas City Center
11:32AM 36.1850 -97.4269 21° North 481 554 23,000 1,452 Climbing Kansas City Center
11:33AM 36.3144 -97.3661 21° North 493 567 24,900 1,597 Climbing Kansas City Center
11:34AM 36.4358 -97.2842 29° Northeast 497 572 26,300 1,694 Climbing Kansas City Center
11:35AM 36.5564 -97.1931 31° Northeast 505 581 28,400 2,274 Climbing Kansas City Center
11:37AM 36.6969 -97.0856 32° Northeast 498 573 31,000 1,258 Climbing Kansas City Center
11:38AM 36.8025 -97.0047 32° Northeast 492 566 31,000  Level Kansas City Center
11:39AM 36.9267 -96.9097 31° Northeast 502 578 31,000  Level Kansas City Center
11:40AM 37.0444 -96.8194 31° Northeast 501 577 31,000  Level Kansas City Center
11:41AM 37.1614 -96.7281 32° Northeast 499 574 31,000  Level Kansas City Center
11:42AM 37.3031 -96.6189 31° Northeast 498 573 31,000  Level Kansas City Center
11:43AM 37.4203 -96.5283 32° Northeast 497 572 31,000 -576 Level Kansas City Center
11:44AM 37.5361 -96.4369 32° Northeast 495 570 29,800 -1,056 Descending Kansas City Center
11:45AM 37.6469 -96.3489 32° Northeast 485 558 28,800 -919 Descending Kansas City Center
11:46AM 37.7603 -96.2608 32° Northeast 485 558 27,900 -871 Descending Kansas City Center
11:47AM 37.8758 -96.1625 34° Northeast 499 574 27,000 -435 Descending Kansas City Center
11:48AM 37.9903 -96.0353 41° Northeast 504 580 27,000  Level Kansas City Center
11:49AM 38.1292 -95.9258 32° Northeast 526 605 27,000 -836 Level Kansas City Center
11:50AM 38.2483 -95.8375 30° Northeast 518 596 25,300 -1,935 Descending Kansas City Center
11:51AM 38.3811 -95.7519 27° Northeast 479 551 23,000 -2,226 Descending Kansas City Center
11:52AM 38.4881 -95.6822 27° Northeast 453 521 20,700 -2,352 Descending Kansas City Center
11:53AM 38.6075 -95.6081 26° Northeast 429 494 18,100 -2,381 Descending Kansas City Center
11:54AM 38.7081 -95.5453 26° Northeast 421 484 15,700 -2,508 Descending Kansas City Center
11:55AM 38.8208 -95.4725 27° Northeast 409 471 13,000 -1,854 Descending Kansas City Center
11:56AM 38.9144 -95.4139 26° Northeast 391 450 11,900 -1,500 Descending Kansas City Center
11:57AM 39.0111 -95.3494 27° Northeast 355 409 9,900 -1,869 Descending Kansas City Center
11:58AM 39.0617 -95.2525 56° Northeast 343 395 8,100 -1,824 Descending Kansas City Center
11:59AM 39.1114 -95.1336 62° Northeast 342 394 6,100 -1,008 Descending Kansas City Center
12:00PM 39.1211 -95.0250 83° East 321 369 6,000 -484 Descending Kansas City Center
12:01PM 39.1503 -94.9047 73° East 315 362 5,100 -968 Descending Kansas City Center
12:02PM 39.1500 -94.8169 90° East 260 299 4,000 -1,016 Descending Kansas City Center
12:03PM 39.1828 -94.7378 62° Northeast 243 280 3,000 -968 Descending Kansas City Center
12:04PM 39.2361 -94.7239 11° North 207 238 2,000 -934 Descending Kansas City Center
12:05PM 39.2781 -94.7108 14° North 135 155 1,100 -885 Descending Kansas City Center
12:07PM 39.2833 -94.7000 67° East  Level FlightAware Approximate
12:14PM 39.2976 -94.7139 67° East  Level Estimated